createdAt,value
2022-12-01T00:01:36.440Z,-1.11
2022-12-01T00:04:05.106Z,-1.12
2022-12-01T00:06:33.380Z,-1.15
2022-12-01T00:09:20.603Z,-1.17
2022-12-01T00:11:49.285Z,-1.20
2022-12-01T00:14:17.895Z,-1.22
2022-12-01T00:16:46.327Z,-1.23
2022-12-01T00:19:14.648Z,-1.23
2022-12-01T00:21:43.129Z,-1.22
2022-12-01T00:24:12.185Z,-1.26
2022-12-01T00:26:40.565Z,-1.22
2022-12-01T00:29:09.498Z,-1.22
2022-12-01T00:31:37.906Z,-1.22
2022-12-01T00:34:11.156Z,-1.26
2022-12-01T00:36:39.872Z,-1.26
2022-12-01T00:39:08.777Z,-1.28
2022-12-01T00:41:37.022Z,-1.29
2022-12-01T00:44:05.560Z,-1.30
2022-12-01T00:46:34.004Z,-1.31
2022-12-01T00:49:02.351Z,-1.32
2022-12-01T00:51:30.712Z,-1.30
2022-12-01T00:53:59.243Z,-1.29
2022-12-01T00:56:27.611Z,-1.26
2022-12-01T00:58:56.199Z,-1.24
2022-12-01T01:01:24.553Z,-1.24
2022-12-01T01:03:52.816Z,-1.29
2022-12-01T01:06:21.048Z,-1.31
2022-12-01T01:08:49.362Z,-1.31
2022-12-01T01:11:17.996Z,-1.31
2022-12-01T01:13:46.364Z,-1.31
2022-12-01T01:16:21.043Z,-1.30
2022-12-01T01:18:49.536Z,-1.31
2022-12-01T01:21:21.191Z,-1.33
2022-12-01T01:23:50.949Z,-1.30
2022-12-01T01:26:22.808Z,-1.29
2022-12-01T01:28:52.046Z,-1.30
2022-12-01T01:31:22.574Z,-1.28
2022-12-01T01:33:51.150Z,-1.28
2022-12-01T01:36:19.927Z,-1.29
2022-12-01T01:38:48.610Z,-1.28
2022-12-01T01:41:16.904Z,-1.27
2022-12-01T01:43:49.565Z,-1.26
2022-12-01T01:46:23.248Z,-1.24
2022-12-01T01:48:53.844Z,-1.24
2022-12-01T01:51:31.065Z,-1.21
2022-12-01T01:54:16.440Z,-1.22
2022-12-01T01:56:46.268Z,-1.22
2022-12-01T01:59:21.497Z,-1.24
2022-12-01T02:01:57.183Z,-1.24
2022-12-01T02:04:27.053Z,-1.24
2022-12-01T02:06:55.736Z,-1.24
2022-12-01T02:09:23.879Z,-1.21
2022-12-01T02:12:25.212Z,-1.18
2022-12-01T02:15:14.682Z,-1.18
2022-12-01T02:18:04.576Z,-1.21
2022-12-01T02:21:00.663Z,-1.24
2022-12-01T02:23:59.895Z,-1.27
2022-12-01T02:26:39.823Z,-1.29
2022-12-01T02:29:36.273Z,-1.30
2022-12-01T02:32:30.374Z,-1.29
2022-12-01T02:35:07.152Z,-1.34
2022-12-01T02:37:40.848Z,-1.34
2022-12-01T02:40:20.547Z,-1.36
2022-12-01T02:43:05.902Z,-1.38
2022-12-01T02:45:51.972Z,-1.40
2022-12-01T02:48:31.151Z,-1.41
2022-12-01T02:51:06.521Z,-1.42
2022-12-01T02:53:35.562Z,-1.41
2022-12-01T02:56:07.993Z,-1.42
2022-12-01T02:58:36.452Z,-1.41
2022-12-01T03:01:33.949Z,-1.40
2022-12-01T03:04:29.797Z,-1.42
2022-12-01T03:07:21.245Z,-1.41
2022-12-01T03:10:10.060Z,-1.40
2022-12-01T03:13:04.000Z,-1.39
2022-12-01T03:15:56.479Z,-1.40
2022-12-01T03:18:38.753Z,-1.39
2022-12-01T03:21:20.517Z,-1.39
2022-12-01T03:23:55.651Z,-1.38
2022-12-01T03:26:27.772Z,-1.36
2022-12-01T03:29:01.230Z,-1.34
2022-12-01T03:31:35.231Z,-1.31
2022-12-01T03:34:34.394Z,-1.30
2022-12-01T03:37:09.316Z,-1.28
2022-12-01T03:39:39.999Z,-1.30
2022-12-01T03:42:15.932Z,-1.33
2022-12-01T03:44:53.574Z,-1.32
2022-12-01T03:47:25.184Z,-1.32
2022-12-01T03:49:54.551Z,-1.33
2022-12-01T03:53:00.315Z,-1.34
2022-12-01T03:55:32.279Z,-1.35
2022-12-01T03:58:06.570Z,-1.35
2022-12-01T04:00:35.967Z,-1.35
2022-12-01T04:03:05.049Z,-1.35
2022-12-01T04:05:35.528Z,-1.35
2022-12-01T04:08:04.149Z,-1.36
2022-12-01T04:10:33.316Z,-1.36
2022-12-01T04:13:01.757Z,-1.37
2022-12-01T04:15:30.038Z,-1.39
2022-12-01T04:17:58.268Z,-1.40
2022-12-01T04:20:26.525Z,-1.40
2022-12-01T04:22:54.990Z,-1.43
2022-12-01T04:25:23.298Z,-1.46
2022-12-01T04:27:51.496Z,-1.48
2022-12-01T04:30:19.775Z,-1.49
2022-12-01T04:32:48.011Z,-1.53
2022-12-01T04:35:16.359Z,-1.58
2022-12-01T04:37:44.565Z,-1.59
2022-12-01T04:40:13.122Z,-1.61
2022-12-01T04:42:41.408Z,-1.60
2022-12-01T04:45:10.327Z,-1.64
2022-12-01T04:47:38.577Z,-1.64
2022-12-01T04:50:07.351Z,-1.65
2022-12-01T04:52:37.887Z,-1.65
2022-12-01T04:55:06.637Z,-1.64
2022-12-01T04:57:34.964Z,-1.65
2022-12-01T05:00:13.231Z,-1.66
2022-12-01T05:02:43.668Z,-1.69
2022-12-01T05:05:12.984Z,-1.71
2022-12-01T05:07:41.461Z,-1.73
2022-12-01T05:10:09.931Z,-1.77
2022-12-01T05:12:38.280Z,-1.77
2022-12-01T05:15:07.543Z,-1.79
2022-12-01T05:17:37.238Z,-1.84
2022-12-01T05:20:25.083Z,-1.85
2022-12-01T05:23:05.176Z,-1.89
2022-12-01T05:25:34.775Z,-1.92
2022-12-01T05:28:04.431Z,-1.90
2022-12-01T05:30:32.882Z,-1.94
2022-12-01T05:33:01.294Z,-1.98
2022-12-01T05:35:29.567Z,-1.98
2022-12-01T05:37:57.819Z,-2.00
2022-12-01T05:40:26.119Z,-2.01
2022-12-01T05:42:54.422Z,-2.00
2022-12-01T05:45:22.981Z,-1.98
2022-12-01T05:47:56.099Z,-1.99
2022-12-01T05:50:25.709Z,-1.99
2022-12-01T05:52:57.003Z,-1.98
2022-12-01T05:55:25.225Z,-1.98
2022-12-01T05:57:53.575Z,-1.97
2022-12-01T06:00:21.885Z,-1.98
2022-12-01T06:02:50.142Z,-1.97
2022-12-01T06:05:18.401Z,-1.95
2022-12-01T06:07:46.746Z,-1.98
2022-12-01T06:10:15.247Z,-1.96
2022-12-01T06:12:43.528Z,-1.94
2022-12-01T06:15:13.076Z,-1.90
2022-12-01T06:17:41.573Z,-1.86
2022-12-01T06:20:10.955Z,-1.82
2022-12-01T06:22:39.714Z,-1.79
2022-12-01T06:25:09.301Z,-1.75
2022-12-01T06:27:37.572Z,-1.71
2022-12-01T06:30:06.725Z,-1.68
2022-12-01T06:32:35.127Z,-1.65
2022-12-01T06:35:03.993Z,-1.58
2022-12-01T06:37:32.237Z,-1.48
2022-12-01T06:40:00.523Z,-1.40
2022-12-01T06:42:32.575Z,-1.28
2022-12-01T06:45:00.865Z,-1.15
2022-12-01T06:47:29.152Z,-1.02
2022-12-01T06:49:57.411Z,-0.90
2022-12-01T06:52:25.713Z,-0.83
2022-12-01T06:54:54.046Z,-0.77
2022-12-01T06:57:22.590Z,-0.68
2022-12-01T06:59:51.478Z,-0.53
2022-12-01T07:02:20.188Z,-0.39
2022-12-01T07:04:48.513Z,-0.23
2022-12-01T07:07:16.879Z,-0.03
2022-12-01T07:09:45.087Z,0.15
2022-12-01T07:12:13.332Z,0.28
2022-12-01T07:14:42.652Z,0.42
2022-12-01T07:17:10.911Z,0.56
2022-12-01T07:19:39.217Z,0.74
2022-12-01T07:22:07.609Z,0.97
2022-12-01T07:24:36.495Z,1.17
2022-12-01T07:27:04.681Z,1.33
2022-12-01T07:29:32.960Z,1.47
2022-12-01T07:32:01.251Z,1.63
2022-12-01T07:34:29.506Z,1.80
2022-12-01T07:36:58.582Z,2.02
2022-12-01T07:39:27.085Z,2.21
2022-12-01T07:41:55.361Z,2.36
2022-12-01T07:44:23.608Z,2.43
2022-12-01T07:46:51.840Z,2.48
2022-12-01T07:49:20.053Z,2.50
2022-12-01T07:51:48.305Z,2.50
2022-12-01T07:54:17.943Z,2.55
2022-12-01T07:56:46.507Z,2.66
2022-12-01T07:59:14.770Z,2.83
2022-12-01T08:01:44.839Z,2.95
2022-12-01T08:04:13.297Z,3.01
2022-12-01T08:06:41.662Z,3.07
2022-12-01T08:09:09.940Z,3.19
2022-12-01T08:11:38.188Z,3.28
2022-12-01T08:14:06.471Z,3.36
2022-12-01T08:16:34.789Z,3.44
2022-12-01T08:19:05.573Z,3.59
2022-12-01T08:21:33.931Z,3.75
2022-12-01T08:24:02.343Z,3.90
2022-12-01T08:26:30.999Z,4.08
2022-12-01T08:28:59.708Z,4.29
2022-12-01T08:31:32.079Z,4.46
2022-12-01T08:34:00.343Z,4.54
2022-12-01T08:36:28.599Z,4.71
2022-12-01T08:38:56.858Z,4.89
2022-12-01T08:41:25.455Z,5.07
2022-12-01T08:43:58.706Z,5.28
2022-12-01T08:46:34.950Z,5.36
2022-12-01T08:49:05.138Z,5.42
2022-12-01T08:51:34.037Z,5.48
2022-12-01T08:54:03.018Z,5.65
2022-12-01T08:56:37.890Z,5.84
2022-12-01T08:59:07.122Z,6.12
2022-12-01T09:01:52.208Z,6.34
2022-12-01T09:04:23.297Z,6.61
2022-12-01T09:06:53.651Z,6.93
2022-12-01T09:09:28.647Z,7.18
2022-12-01T09:11:57.574Z,7.44
2022-12-01T09:14:25.840Z,7.62
2022-12-01T09:16:54.439Z,7.75
2022-12-01T09:19:24.891Z,7.91
2022-12-01T09:21:53.622Z,8.04
2022-12-01T09:24:22.412Z,8.18
2022-12-01T09:26:54.506Z,8.29
2022-12-01T09:29:22.780Z,8.33
2022-12-01T09:31:51.384Z,8.13
2022-12-01T09:34:20.370Z,8.09
2022-12-01T09:36:49.341Z,8.15
2022-12-01T09:39:20.678Z,8.22
2022-12-01T09:42:12.984Z,8.27
2022-12-01T09:44:49.910Z,8.47
2022-12-01T09:47:20.489Z,8.71
2022-12-01T09:49:55.581Z,8.99
2022-12-01T09:52:26.712Z,9.27
2022-12-01T09:54:58.517Z,9.52
2022-12-01T09:57:35.426Z,9.69
2022-12-01T10:00:15.688Z,9.85
2022-12-01T10:03:17.955Z,10.00
2022-12-01T10:06:25.153Z,10.18
2022-12-01T10:08:44.268Z,10.34
2022-12-01T10:11:24.752Z,10.43
2022-12-01T10:13:53.078Z,10.37
2022-12-01T10:16:27.993Z,10.38
2022-12-01T10:19:13.481Z,10.49
2022-12-01T10:22:00.550Z,10.58
2022-12-01T10:24:41.053Z,10.74
2022-12-01T10:27:24.410Z,10.87
2022-12-01T10:30:10.206Z,11.07
2022-12-01T10:32:56.329Z,11.25
2022-12-01T10:35:29.356Z,11.22
2022-12-01T10:38:02.100Z,11.43
2022-12-01T10:40:35.337Z,11.60
2022-12-01T10:43:03.649Z,11.80
2022-12-01T10:45:36.159Z,11.83
2022-12-01T10:48:20.296Z,11.62
2022-12-01T10:50:54.497Z,11.28
2022-12-01T10:53:22.675Z,11.06
2022-12-01T10:56:18.456Z,10.93
2022-12-01T10:59:17.767Z,10.77
2022-12-01T11:01:48.489Z,10.68
2022-12-01T11:04:28.978Z,10.63
2022-12-01T11:06:57.761Z,10.48
2022-12-01T11:09:29.303Z,10.33
2022-12-01T11:12:03.292Z,10.12
2022-12-01T11:14:44.355Z,9.89
2022-12-01T11:17:33.393Z,9.50
2022-12-01T11:20:29.377Z,9.15
2022-12-01T11:23:26.544Z,8.93
2022-12-01T11:26:10.550Z,8.82
2022-12-01T11:28:50.188Z,8.65
2022-12-01T11:31:20.270Z,8.48
2022-12-01T11:33:55.168Z,8.46
2022-12-01T11:36:42.731Z,8.42
2022-12-01T11:39:27.757Z,8.45
2022-12-01T11:41:59.979Z,8.44
2022-12-01T11:44:50.208Z,8.48
2022-12-01T11:47:23.617Z,8.59
2022-12-01T11:49:56.743Z,8.76
2022-12-01T11:52:30.785Z,9.01
2022-12-01T11:55:20.502Z,9.30
2022-12-01T11:57:52.469Z,9.54
2022-12-01T12:00:24.167Z,9.71
2022-12-01T12:03:25.013Z,9.91
2022-12-01T12:09:19.326Z,10.13
2022-12-01T12:12:01.917Z,10.17
2022-12-01T12:15:08.599Z,10.17
2022-12-01T12:17:39.525Z,10.20
2022-12-01T12:20:43.061Z,10.23
2022-12-01T12:23:38.058Z,10.10
2022-12-01T12:26:13.384Z,9.94
2022-12-01T12:28:44.557Z,9.81
2022-12-01T12:31:28.048Z,9.72
2022-12-01T12:34:25.420Z,9.62
2022-12-01T12:37:03.498Z,9.47
2022-12-01T12:39:43.772Z,9.31
2022-12-01T12:42:27.272Z,9.22
2022-12-01T12:45:04.631Z,9.27
2022-12-01T12:47:35.878Z,9.31
2022-12-01T12:50:30.128Z,9.22
2022-12-01T12:53:08.665Z,9.21
2022-12-01T12:55:41.886Z,9.22
2022-12-01T12:58:16.718Z,9.15
2022-12-01T13:00:56.315Z,9.06
2022-12-01T13:03:34.817Z,8.89
2022-12-01T13:06:10.331Z,8.71
2022-12-01T13:08:51.157Z,8.61
2022-12-01T13:11:27.826Z,8.47
2022-12-01T13:14:06.708Z,8.34
2022-12-01T13:16:39.715Z,8.13
2022-12-01T13:19:16.682Z,8.01
2022-12-01T13:21:48.447Z,7.87
2022-12-01T13:24:23.486Z,7.73
2022-12-01T13:26:57.560Z,7.58
2022-12-01T13:29:27.498Z,7.43
2022-12-01T13:31:56.112Z,7.28
2022-12-01T13:34:43.722Z,7.17
2022-12-01T13:37:12.229Z,7.04
2022-12-01T13:39:41.874Z,6.96
2022-12-01T13:42:24.139Z,6.85
2022-12-01T13:44:59.399Z,6.71
2022-12-01T13:47:52.946Z,6.61
2022-12-01T13:50:39.296Z,6.51
2022-12-01T13:53:14.355Z,6.40
2022-12-01T13:56:07.756Z,6.30
2022-12-01T13:58:35.944Z,6.14
2022-12-01T14:01:22.905Z,6.09
2022-12-01T14:04:01.319Z,5.97
2022-12-01T14:06:49.705Z,5.86
2022-12-01T14:09:24.088Z,5.73
2022-12-01T14:12:15.149Z,5.57
2022-12-01T14:14:46.478Z,5.44
2022-12-01T14:17:41.791Z,5.30
2022-12-01T14:20:13.020Z,5.21
2022-12-01T14:22:44.728Z,5.15
2022-12-01T14:25:18.874Z,5.04
2022-12-01T14:28:15.905Z,4.99
2022-12-01T14:30:45.926Z,4.90
2022-12-01T14:33:41.744Z,4.84
2022-12-01T14:36:12.895Z,4.76
2022-12-01T14:38:42.648Z,4.68
2022-12-01T14:41:21.102Z,4.59
2022-12-01T14:44:05.398Z,4.52
2022-12-01T14:46:49.072Z,4.40
2022-12-01T14:49:33.159Z,4.31
2022-12-01T14:52:06.878Z,4.24
2022-12-01T14:54:45.379Z,4.20
2022-12-01T14:57:17.732Z,4.13
2022-12-01T14:59:46.091Z,4.05
2022-12-01T15:02:15.075Z,3.99
2022-12-01T15:05:06.074Z,3.88
2022-12-01T15:07:39.620Z,3.83
2022-12-01T15:10:34.609Z,3.78
2022-12-01T15:13:33.464Z,3.70
2022-12-01T15:16:13.355Z,3.67
2022-12-01T15:18:41.723Z,3.62
2022-12-01T15:21:17.836Z,3.57
2022-12-01T15:24:03.634Z,3.51
2022-12-01T15:26:34.695Z,3.45
2022-12-01T15:29:11.524Z,3.39
2022-12-01T15:31:40.277Z,3.32
2022-12-01T15:34:15.715Z,3.28
2022-12-01T15:36:45.008Z,3.24
2022-12-01T15:39:19.835Z,3.23
2022-12-01T15:41:54.084Z,3.22
2022-12-01T15:44:32.307Z,3.20
2022-12-01T15:47:43.804Z,3.19
2022-12-01T15:50:44.452Z,3.11
2022-12-01T15:53:20.176Z,3.09
2022-12-01T15:55:54.100Z,3.06
2022-12-01T15:58:30.369Z,3.03
2022-12-01T16:01:01.820Z,3.00
2022-12-01T16:03:30.782Z,2.98
2022-12-01T16:05:59.178Z,2.97
2022-12-01T16:08:28.448Z,2.98
2022-12-01T16:11:18.161Z,2.99
2022-12-01T16:14:19.744Z,3.00
2022-12-01T16:16:49.635Z,3.00
2022-12-01T16:19:17.878Z,3.00
2022-12-01T16:22:10.552Z,3.01
2022-12-01T16:24:46.961Z,3.01
2022-12-01T16:27:25.184Z,3.01
2022-12-01T16:29:57.554Z,3.02
2022-12-01T16:32:42.735Z,3.03
2022-12-01T16:35:22.951Z,3.05
2022-12-01T16:37:51.301Z,3.07
2022-12-01T16:40:20.167Z,3.10
2022-12-01T16:42:51.202Z,3.09
2022-12-01T16:45:20.316Z,3.10
2022-12-01T16:47:49.674Z,3.11
2022-12-01T16:50:20.734Z,3.10
2022-12-01T16:52:49.168Z,3.07
2022-12-01T16:55:30.827Z,3.06
2022-12-01T16:57:59.098Z,3.04
2022-12-01T17:00:29.475Z,3.02
2022-12-01T17:02:58.608Z,3.00
2022-12-01T17:05:27.163Z,2.98
2022-12-01T17:07:55.538Z,2.97
2022-12-01T17:10:24.686Z,2.97
2022-12-01T17:12:53.017Z,2.96
2022-12-01T17:15:21.321Z,2.96
2022-12-01T17:17:50.261Z,2.94
2022-12-01T17:20:18.981Z,2.96
2022-12-01T17:22:47.991Z,2.96
2022-12-01T17:25:16.755Z,2.95
2022-12-01T17:27:45.929Z,2.94
2022-12-01T17:30:14.581Z,2.94
2022-12-01T17:32:42.989Z,2.95
2022-12-01T17:35:11.348Z,2.95
2022-12-01T17:37:39.643Z,2.95
2022-12-01T17:40:11.511Z,2.96
2022-12-01T17:42:39.834Z,2.95
2022-12-01T17:45:08.714Z,2.94
2022-12-01T17:47:37.052Z,2.95
2022-12-01T17:50:05.778Z,2.94
2022-12-01T17:52:34.069Z,2.94
2022-12-01T17:55:02.349Z,2.95
2022-12-01T17:57:30.554Z,2.96
2022-12-01T17:59:58.825Z,2.96
2022-12-01T18:02:27.656Z,2.97
2022-12-01T18:04:55.968Z,2.96
2022-12-01T18:07:24.342Z,2.94
2022-12-01T18:09:52.769Z,2.94
2022-12-01T18:12:21.053Z,2.93
2022-12-01T18:14:49.452Z,2.91
2022-12-01T18:17:17.975Z,2.91
2022-12-01T18:19:46.235Z,2.90
2022-12-01T18:22:14.527Z,2.89
2022-12-01T18:24:42.739Z,2.90
2022-12-01T18:27:11.017Z,2.88
2022-12-01T18:29:39.434Z,2.88
2022-12-01T18:32:07.933Z,2.85
2022-12-01T18:34:36.284Z,2.82
2022-12-01T18:37:06.129Z,2.79
2022-12-01T18:39:34.726Z,2.77
2022-12-01T18:42:03.065Z,2.74
2022-12-01T18:44:31.499Z,2.70
2022-12-01T18:47:02.782Z,2.67
2022-12-01T18:49:31.191Z,2.65
2022-12-01T18:52:00.478Z,2.63
2022-12-01T18:54:28.728Z,2.64
2022-12-01T18:56:59.091Z,2.66
2022-12-01T18:59:27.659Z,2.64
2022-12-01T19:01:56.355Z,2.65
2022-12-01T19:04:25.226Z,2.66
2022-12-01T19:06:53.493Z,2.67
2022-12-01T19:09:21.862Z,2.66
2022-12-01T19:11:50.347Z,2.67
2022-12-01T19:14:19.759Z,2.68
2022-12-01T19:16:49.071Z,2.69
2022-12-01T19:19:17.363Z,2.70
2022-12-01T19:21:46.134Z,2.71
2022-12-01T19:24:14.457Z,2.70
2022-12-01T19:26:42.948Z,2.72
2022-12-01T19:29:11.632Z,2.73
2022-12-01T19:31:40.311Z,2.75
2022-12-01T19:34:08.773Z,2.76
2022-12-01T19:36:37.199Z,2.78
2022-12-01T19:39:07.646Z,2.79
2022-12-01T19:41:38.824Z,2.80
2022-12-01T19:44:07.434Z,2.81
2022-12-01T19:46:35.954Z,2.81
2022-12-01T19:49:05.774Z,2.79
2022-12-01T19:51:36.626Z,2.73
2022-12-01T19:54:07.125Z,2.67
2022-12-01T19:56:35.469Z,2.66
2022-12-01T19:59:05.009Z,2.62
2022-12-01T20:01:33.589Z,2.60
2022-12-01T20:04:01.871Z,2.57
2022-12-01T20:06:32.663Z,2.54
2022-12-01T20:09:02.782Z,2.50
2022-12-01T20:11:33.048Z,2.44
2022-12-01T20:14:02.664Z,2.40
2022-12-01T20:16:32.160Z,2.37
2022-12-01T20:19:02.867Z,2.35
2022-12-01T20:21:39.375Z,2.32
2022-12-01T20:24:10.245Z,2.29
2022-12-01T20:26:42.365Z,2.27
2022-12-01T20:29:14.700Z,2.25
2022-12-01T20:31:43.859Z,2.24
2022-12-01T20:34:15.561Z,2.26
2022-12-01T20:36:44.172Z,2.26
2022-12-01T20:39:14.146Z,2.26
2022-12-01T20:41:43.116Z,2.24
2022-12-01T20:44:13.177Z,2.24
2022-12-01T20:46:42.086Z,2.24
2022-12-01T20:49:10.277Z,2.22
2022-12-01T20:51:38.898Z,2.21
2022-12-01T20:56:58.462Z,2.22
2022-12-01T20:59:27.727Z,2.21
2022-12-01T21:01:56.358Z,2.19
2022-12-01T21:04:24.775Z,2.20
2022-12-01T21:06:56.428Z,2.20
2022-12-01T21:09:25.663Z,2.19
2022-12-01T21:12:12.899Z,2.19
2022-12-01T21:15:02.694Z,2.17
2022-12-01T21:17:35.582Z,2.17
2022-12-01T21:20:21.625Z,2.14
2022-12-01T21:22:51.410Z,2.15
2022-12-01T21:25:24.659Z,2.14
2022-12-01T21:27:57.011Z,2.14
2022-12-01T21:30:30.014Z,2.13
2022-12-01T21:33:33.694Z,2.15
2022-12-01T21:36:03.252Z,2.21
2022-12-01T21:38:32.019Z,2.24
2022-12-01T21:41:00.384Z,2.27
2022-12-01T21:43:32.680Z,2.28
2022-12-01T21:46:13.591Z,2.27
2022-12-01T21:48:42.502Z,2.26
2022-12-01T21:51:20.101Z,2.28
2022-12-01T21:53:48.991Z,2.30
2022-12-01T21:56:21.387Z,2.28
2022-12-01T21:58:50.471Z,2.25
2022-12-01T22:01:32.810Z,2.21
2022-12-01T22:04:05.816Z,2.15
2022-12-01T22:06:43.345Z,2.12
2022-12-01T22:09:24.439Z,2.10
2022-12-01T22:11:56.253Z,2.09
2022-12-01T22:14:29.822Z,2.03
2022-12-01T22:17:07.226Z,2.03
2022-12-01T22:19:42.454Z,2.01
2022-12-01T22:22:25.472Z,1.99
2022-12-01T22:24:58.876Z,2.01
2022-12-01T22:27:38.314Z,2.01
2022-12-01T22:30:06.674Z,2.01
2022-12-01T22:32:46.219Z,1.99
2022-12-01T22:35:20.305Z,2.01
2022-12-01T22:37:54.498Z,2.02
2022-12-01T22:40:29.312Z,2.02
2022-12-01T22:43:20.305Z,2.03
2022-12-01T22:46:01.938Z,2.04
2022-12-01T22:48:35.000Z,2.04
2022-12-01T22:51:23.735Z,2.03
2022-12-01T22:53:59.052Z,2.06
2022-12-01T22:56:27.906Z,2.08
2022-12-01T22:58:56.732Z,2.09
2022-12-01T23:01:29.334Z,2.08
2022-12-01T23:04:21.969Z,2.09
2022-12-01T23:06:59.709Z,2.09
2022-12-01T23:09:33.252Z,2.10
2022-12-01T23:12:10.369Z,2.10
2022-12-01T23:14:45.936Z,2.12
2022-12-01T23:17:22.119Z,2.14
2022-12-01T23:19:53.634Z,2.16
2022-12-01T23:22:22.032Z,2.17
2022-12-01T23:24:50.697Z,2.18
2022-12-01T23:27:19.400Z,2.21
2022-12-01T23:29:47.931Z,2.25
2022-12-01T23:32:17.697Z,2.30
2022-12-01T23:34:46.140Z,2.33
2022-12-01T23:37:37.267Z,2.36
2022-12-01T23:40:28.763Z,2.41
2022-12-01T23:43:15.844Z,2.42
2022-12-01T23:45:45.571Z,2.41
2022-12-01T23:48:22.198Z,2.42
2022-12-01T23:50:53.186Z,2.43
2022-12-01T23:53:26.774Z,2.45
2022-12-01T23:55:56.811Z,2.46
2022-12-01T23:58:25.400Z,2.47
